Time,TemperatureF,DewpointF,PressureIn,WindDirection,WindDirectionDegrees,WindSpeedMPH,WindSpeedGustMPH,Humidity,HourlyPrecipIn,Conditions,Clouds,dailyrainin,SoftwareType,DateUTC
2013-05-10 00:12:00,65.0,64.0,-100.00,East,100,2.0,4.0,97,0.00,,,0.00,,2013-05-10 05:12:00,
2013-05-10 00:22:00,65.0,64.0,-100.00,East,100,2.0,4.0,97,0.00,,,0.00,,2013-05-10 05:22:00,
2013-05-10 00:32:00,65.0,64.0,-100.00,East,100,2.0,4.0,97,0.00,,,0.00,,2013-05-10 05:32:00,
2013-05-10 00:42:00,65.0,64.0,-100.00,East,100,2.0,4.0,97,0.00,,,0.00,,2013-05-10 05:42:00,
2013-05-10 01:12:00,66.0,64.0,-100.00,NNE,17,0.0,4.0,94,0.00,,,0.00,,2013-05-10 06:12:00,
2013-05-10 01:21:00,66.0,64.0,-100.00,NNE,17,0.0,4.0,94,0.00,,,0.00,,2013-05-10 06:21:00,
2013-05-10 01:32:00,66.0,64.0,-100.00,NNE,17,0.0,4.0,94,0.00,,,0.00,,2013-05-10 06:32:00,
2013-05-10 01:42:00,66.0,64.0,-100.00,NNE,17,0.0,4.0,94,0.00,,,0.00,,2013-05-10 06:42:00,
2013-05-10 02:12:00,64.0,63.0,-100.00,WNW,286,0.0,2.0,97,0.00,,,0.00,,2013-05-10 07:12:00,
2013-05-10 02:22:00,64.0,63.0,-100.00,WNW,286,0.0,2.0,97,0.00,,,0.00,,2013-05-10 07:22:00,
2013-05-10 02:31:00,64.0,63.0,-100.00,WNW,286,0.0,2.0,97,0.00,,,0.00,,2013-05-10 07:31:00,
2013-05-10 02:42:00,64.0,63.0,-100.00,WNW,286,0.0,2.0,97,0.00,,,0.00,,2013-05-10 07:42:00,
2013-05-10 03:12:00,63.0,62.0,-100.00,East,96,0.0,0.0,98,0.00,,,0.00,,2013-05-10 08:12:00,
2013-05-10 03:22:00,63.0,62.0,-100.00,East,96,0.0,0.0,98,0.00,,,0.00,,2013-05-10 08:22:00,
2013-05-10 03:32:00,63.0,62.0,-100.00,East,96,0.0,0.0,98,0.00,,,0.00,,2013-05-10 08:32:00,
2013-05-10 03:42:00,63.0,62.0,-100.00,East,96,0.0,0.0,98,0.00,,,0.00,,2013-05-10 08:42:00,
2013-05-10 04:11:00,66.0,65.0,-100.00,SSW,194,1.0,3.0,98,0.00,,,0.00,,2013-05-10 09:11:00,
2013-05-10 04:21:00,66.0,65.0,-100.00,SSW,194,1.0,3.0,98,0.00,,,0.00,,2013-05-10 09:21:00,
2013-05-10 04:32:00,66.0,65.0,-100.00,SSW,194,1.0,3.0,98,0.00,,,0.00,,2013-05-10 09:32:00,
2013-05-10 04:42:00,66.0,65.0,-100.00,SSW,194,1.0,3.0,98,0.00,,,0.00,,2013-05-10 09:42:00,
2013-05-10 05:12:00,68.0,68.0,-100.00,SE,145,2.0,5.0,99,0.00,,,0.00,,2013-05-10 10:12:00,
2013-05-10 05:23:00,68.0,68.0,-100.00,SE,145,2.0,5.0,99,0.00,,,0.00,,2013-05-10 10:23:00,
2013-05-10 05:32:00,68.0,68.0,-100.00,SE,145,2.0,5.0,99,0.00,,,0.00,,2013-05-10 10:32:00,
2013-05-10 05:42:00,68.0,68.0,-100.00,SE,145,2.0,5.0,99,0.00,,,0.00,,2013-05-10 10:42:00,
2013-05-10 06:12:00,68.0,68.0,-100.00,SSE,155,3.0,6.0,99,0.00,,,0.00,,2013-05-10 11:12:00,
2013-05-10 06:22:00,68.0,68.0,-100.00,SSE,155,3.0,6.0,99,0.00,,,0.00,,2013-05-10 11:22:00,
2013-05-10 06:32:00,68.0,68.0,-100.00,SSE,155,3.0,6.0,99,0.00,,,0.00,,2013-05-10 11:32:00,
2013-05-10 06:42:00,68.0,68.0,-100.00,SSE,155,3.0,6.0,99,0.00,,,0.00,,2013-05-10 11:42:00,
2013-05-10 09:11:00,69.0,68.0,-100.00,NNE,16,3.0,7.0,98,-99.99,,,0.04,,2013-05-10 14:11:00,
2013-05-10 09:21:00,69.0,68.0,-100.00,NNE,16,3.0,7.0,98,-99.99,,,0.04,,2013-05-10 14:21:00,
2013-05-10 09:32:00,69.0,68.0,-100.00,NNE,16,3.0,7.0,98,-99.99,,,0.04,,2013-05-10 14:32:00,
2013-05-10 09:42:00,69.0,68.0,-100.00,NNE,16,3.0,7.0,98,-99.99,,,0.04,,2013-05-10 14:42:00,
2013-05-10 10:20:00,-999.0,-99.9,-100.00,WSW,242,1.0,4.0,98,0.13,,,0.17,,2013-05-10 15:20:00,
2013-05-10 10:32:00,68.0,67.0,-100.00,WSW,242,1.0,4.0,98,0.13,,,0.17,,2013-05-10 15:32:00,
2013-05-10 10:42:00,68.0,67.0,-100.00,WSW,242,1.0,4.0,98,0.13,,,0.17,,2013-05-10 15:42:00,
2013-05-10 11:12:00,67.0,66.0,-100.00,ESE,118,4.0,10.0,98,0.33,,,0.50,,2013-05-10 16:12:00,
2013-05-10 11:23:00,67.0,66.0,-100.00,ESE,118,4.0,10.0,98,0.33,,,0.50,,2013-05-10 16:23:00,
2013-05-10 11:32:00,67.0,66.0,-100.00,ESE,118,4.0,10.0,98,0.33,,,0.50,,2013-05-10 16:32:00,
2013-05-10 11:42:00,67.0,66.0,-100.00,ESE,118,4.0,10.0,98,0.33,,,0.50,,2013-05-10 16:42:00,
2013-05-10 12:12:00,67.0,66.0,-100.00,SW,227,5.0,14.0,98,0.01,,,0.51,,2013-05-10 17:12:00,
2013-05-10 12:22:00,67.0,66.0,-100.00,SW,227,5.0,14.0,98,0.01,,,0.51,,2013-05-10 17:22:00,
2013-05-10 12:32:00,67.0,66.0,-100.00,SW,227,5.0,14.0,98,0.01,,,0.51,,2013-05-10 17:32:00,
2013-05-10 12:42:00,67.0,66.0,-100.00,SW,227,5.0,14.0,98,0.01,,,0.51,,2013-05-10 17:42:00,
2013-05-10 13:12:00,69.0,65.0,-100.00,South,184,4.0,8.0,88,0.00,,,0.51,,2013-05-10 18:12:00,
2013-05-10 13:22:00,69.0,65.0,-100.00,South,184,4.0,8.0,88,0.00,,,0.51,,2013-05-10 18:22:00,
2013-05-10 13:34:00,69.0,65.0,-100.00,South,184,4.0,8.0,88,0.00,,,0.51,,2013-05-10 18:34:00,
2013-05-10 13:43:00,69.0,65.0,-100.00,South,184,4.0,8.0,88,0.00,,,0.51,,2013-05-10 18:43:00,
2013-05-10 14:11:00,71.0,64.0,-100.00,West,266,4.0,11.0,78,0.00,,,0.51,,2013-05-10 19:11:00,
2013-05-10 14:21:00,71.0,64.0,-100.00,West,266,4.0,11.0,78,0.00,,,0.51,,2013-05-10 19:21:00,
2013-05-10 14:32:00,71.0,64.0,-100.00,West,266,4.0,11.0,78,0.00,,,0.51,,2013-05-10 19:32:00,
2013-05-10 14:42:00,71.0,64.0,-100.00,West,266,4.0,11.0,78,0.00,,,0.51,,2013-05-10 19:42:00,
2013-05-10 15:12:00,74.0,64.0,-100.00,West,271,7.0,14.0,71,0.00,,,0.51,,2013-05-10 20:12:00,
2013-05-10 15:21:00,74.0,64.0,-100.00,West,271,7.0,14.0,71,0.00,,,0.51,,2013-05-10 20:21:00,
2013-05-10 15:32:00,74.0,64.0,-100.00,West,271,7.0,14.0,71,0.00,,,0.51,,2013-05-10 20:32:00,
2013-05-10 15:41:00,74.0,64.0,-100.00,West,271,7.0,14.0,71,0.00,,,0.51,,2013-05-10 20:41:00,
2013-05-10 16:11:00,72.0,63.0,-100.00,West,280,5.0,16.0,73,0.00,,,0.51,,2013-05-10 21:11:00,
2013-05-10 16:25:00,72.0,63.0,-100.00,West,280,5.0,16.0,73,0.00,,,0.51,,2013-05-10 21:25:00,
2013-05-10 16:32:00,72.0,63.0,-100.00,West,280,5.0,16.0,73,0.00,,,0.51,,2013-05-10 21:32:00,
2013-05-10 16:43:00,72.0,63.0,-100.00,West,280,5.0,16.0,73,0.00,,,0.51,,2013-05-10 21:43:00,
2013-05-10 17:13:00,71.0,65.0,-100.00,WNW,286,6.0,10.0,82,0.00,,,0.51,,2013-05-10 22:13:00,
2013-05-10 17:22:00,71.0,65.0,-100.00,WNW,286,6.0,10.0,82,0.00,,,0.51,,2013-05-10 22:22:00,
2013-05-10 17:32:00,71.0,65.0,-100.00,WNW,286,6.0,10.0,82,0.00,,,0.51,,2013-05-10 22:32:00,
2013-05-10 17:42:00,71.0,65.0,-100.00,WNW,286,6.0,10.0,82,0.00,,,0.51,,2013-05-10 22:42:00,
2013-05-10 18:12:00,69.0,64.0,-100.00,WNW,297,5.0,13.0,85,0.00,,,0.51,,2013-05-10 23:12:00,
2013-05-10 18:22:00,69.0,64.0,-100.00,WNW,297,5.0,13.0,85,0.00,,,0.51,,2013-05-10 23:22:00,
2013-05-10 18:33:00,69.0,64.0,-100.00,WNW,297,5.0,13.0,85,0.00,,,0.51,,2013-05-10 23:33:00,
2013-05-10 18:42:00,69.0,64.0,-100.00,WNW,297,5.0,13.0,85,0.00,,,0.51,,2013-05-10 23:42:00,
2013-05-10 19:11:00,67.0,65.0,-100.00,WNW,283,5.0,9.0,94,0.03,,,0.54,,2013-05-11 00:11:00,
2013-05-10 19:21:00,67.0,65.0,-100.00,WNW,283,5.0,9.0,94,0.03,,,0.54,,2013-05-11 00:21:00,
2013-05-10 19:32:00,67.0,65.0,-100.00,WNW,283,5.0,9.0,94,0.03,,,0.54,,2013-05-11 00:32:00,
2013-05-10 19:42:00,67.0,65.0,-100.00,WNW,283,5.0,9.0,94,0.03,,,0.54,,2013-05-11 00:42:00,
2013-05-10 20:11:00,65.0,64.0,-100.00,SW,215,2.0,9.0,97,0.02,,,0.56,,2013-05-11 01:11:00,
2013-05-10 20:21:00,65.0,64.0,-100.00,SW,215,2.0,9.0,97,0.02,,,0.56,,2013-05-11 01:21:00,
2013-05-10 20:32:00,65.0,64.0,-100.00,SW,215,2.0,9.0,97,0.02,,,0.56,,2013-05-11 01:32:00,
2013-05-10 20:42:00,65.0,64.0,-100.00,SW,215,2.0,9.0,97,0.02,,,0.56,,2013-05-11 01:42:00,
2013-05-10 21:11:00,65.0,64.0,-100.00,East,93,3.0,6.0,98,0.01,,,0.57,,2013-05-11 02:11:00,
2013-05-10 21:22:00,65.0,64.0,-100.00,East,93,3.0,6.0,98,0.01,,,0.57,,2013-05-11 02:22:00,
2013-05-10 21:32:00,65.0,64.0,-100.00,East,93,3.0,6.0,98,0.01,,,0.57,,2013-05-11 02:32:00,
2013-05-10 21:42:00,65.0,64.0,-100.00,East,93,3.0,6.0,98,0.01,,,0.57,,2013-05-11 02:42:00,
2013-05-10 22:11:00,64.0,63.0,-100.00,North,354,2.0,7.0,98,0.00,,,0.57,,2013-05-11 03:11:00,
2013-05-10 22:21:00,64.0,63.0,-100.00,North,354,2.0,7.0,98,0.00,,,0.57,,2013-05-11 03:21:00,
2013-05-10 22:33:00,64.0,63.0,-100.00,North,354,2.0,7.0,98,0.00,,,0.57,,2013-05-11 03:33:00,
2013-05-10 22:42:00,64.0,63.0,-100.00,North,354,2.0,7.0,98,0.00,,,0.57,,2013-05-11 03:42:00,
2013-05-10 23:12:00,64.0,64.0,-100.00,NW,310,2.0,6.0,99,0.00,,,0.57,,2013-05-11 04:12:00,
2013-05-10 23:23:00,64.0,64.0,-100.00,NW,310,2.0,6.0,99,0.00,,,0.57,,2013-05-11 04:23:00,
2013-05-10 23:33:00,64.0,64.0,-100.00,NW,310,2.0,6.0,99,0.00,,,0.57,,2013-05-11 04:33:00,
2013-05-10 23:43:00,64.0,64.0,-100.00,NW,310,2.0,6.0,99,0.00,,,0.57,,2013-05-11 04:43:00,